sensor_id;sensor_type;location;lat;lon;timestamp;P1;durP1;ratioP1;P2;durP2;ratioP2
5650;SDS011;40241;52.684;9.758;2022-08-11T00:02:06;1.40;;;1.30;;
5650;SDS011;40241;52.684;9.758;2022-08-11T00:04:35;0.97;;;0.97;;
5650;SDS011;40241;52.684;9.758;2022-08-11T00:07:03;3.40;;;1.03;;
5650;SDS011;40241;52.684;9.758;2022-08-11T00:09:31;1.10;;;1.07;;
5650;SDS011;40241;52.684;9.758;2022-08-11T00:12:00;1.13;;;1.03;;
5650;SDS011;40241;52.684;9.758;2022-08-11T00:14:27;0.90;;;0.90;;
5650;SDS011;40241;52.684;9.758;2022-08-11T00:19:24;1.30;;;1.30;;
5650;SDS011;40241;52.684;9.758;2022-08-11T00:21:51;1.73;;;1.40;;
5650;SDS011;40241;52.684;9.758;2022-08-11T00:24:19;3.07;;;1.30;;
5650;SDS011;40241;52.684;9.758;2022-08-11T00:26:48;1.10;;;1.10;;
5650;SDS011;40241;52.684;9.758;2022-08-11T00:29:16;3.37;;;1.37;;
5650;SDS011;40241;52.684;9.758;2022-08-11T00:31:52;1.03;;;0.97;;
5650;SDS011;40241;52.684;9.758;2022-08-11T00:34:25;2.40;;;2.13;;
5650;SDS011;40241;52.684;9.758;2022-08-11T00:36:54;1.40;;;1.30;;
5650;SDS011;40241;52.684;9.758;2022-08-11T00:39:24;1.70;;;1.60;;
5650;SDS011;40241;52.684;9.758;2022-08-11T00:45:17;1.40;;;1.30;;
5650;SDS011;40241;52.684;9.758;2022-08-11T00:48:01;1.10;;;1.10;;
5650;SDS011;40241;52.684;9.758;2022-08-11T00:50:56;1.40;;;1.30;;
5650;SDS011;40241;52.684;9.758;2022-08-11T01:01:07;1.10;;;1.10;;
5650;SDS011;40241;52.684;9.758;2022-08-11T01:20:10;1.37;;;1.27;;
5650;SDS011;40241;52.684;9.758;2022-08-11T01:22:58;1.50;;;1.20;;
5650;SDS011;40241;52.684;9.758;2022-08-11T01:29:00;1.50;;;1.40;;
5650;SDS011;40241;52.684;9.758;2022-08-11T01:31:55;1.87;;;1.20;;
5650;SDS011;40241;52.684;9.758;2022-08-11T01:35:02;1.20;;;1.20;;
5650;SDS011;40241;52.684;9.758;2022-08-11T01:40:55;1.07;;;0.97;;
5650;SDS011;40241;52.684;9.758;2022-08-11T01:46:56;1.50;;;1.40;;
5650;SDS011;40241;52.684;9.758;2022-08-11T01:50:04;1.27;;;1.10;;
5650;SDS011;40241;52.684;9.758;2022-08-11T01:55:37;1.50;;;1.40;;
5650;SDS011;40241;52.684;9.758;2022-08-11T01:58:17;0.97;;;0.97;;
5650;SDS011;40241;52.684;9.758;2022-08-11T02:03:45;2.50;;;1.30;;
5650;SDS011;40241;52.684;9.758;2022-08-11T02:06:19;1.20;;;1.10;;
5650;SDS011;40241;52.684;9.758;2022-08-11T02:12:12;0.90;;;0.90;;
5650;SDS011;40241;52.684;9.758;2022-08-11T02:15:37;1.73;;;1.40;;
5650;SDS011;40241;52.684;9.758;2022-08-11T02:20:54;1.33;;;0.93;;
5650;SDS011;40241;52.684;9.758;2022-08-11T02:29:08;1.23;;;1.20;;
5650;SDS011;40241;52.684;9.758;2022-08-11T02:31:44;1.17;;;1.17;;
5650;SDS011;40241;52.684;9.758;2022-08-11T02:37:26;3.07;;;1.10;;
5650;SDS011;40241;52.684;9.758;2022-08-11T02:40:37;1.10;;;1.10;;
5650;SDS011;40241;52.684;9.758;2022-08-11T02:43:11;4.40;;;1.27;;
5650;SDS011;40241;52.684;9.758;2022-08-11T02:56:40;1.50;;;1.40;;
5650;SDS011;40241;52.684;9.758;2022-08-11T03:14:13;0.87;;;0.87;;
5650;SDS011;40241;52.684;9.758;2022-08-11T03:20:22;1.07;;;1.07;;
5650;SDS011;40241;52.684;9.758;2022-08-11T03:25:46;1.30;;;1.20;;
5650;SDS011;40241;52.684;9.758;2022-08-11T03:28:25;1.53;;;1.43;;
5650;SDS011;40241;52.684;9.758;2022-08-11T03:33:43;2.10;;;1.47;;
5650;SDS011;40241;52.684;9.758;2022-08-11T03:36:35;1.17;;;1.17;;
5650;SDS011;40241;52.684;9.758;2022-08-11T03:47:59;1.23;;;1.13;;
5650;SDS011;40241;52.684;9.758;2022-08-11T04:24:57;1.33;;;1.33;;
5650;SDS011;40241;52.684;9.758;2022-08-11T04:48:18;1.50;;;1.40;;
5650;SDS011;40241;52.684;9.758;2022-08-11T04:54:50;1.10;;;1.10;;
5650;SDS011;40241;52.684;9.758;2022-08-11T05:01:00;1.40;;;1.30;;
5650;SDS011;40241;52.684;9.758;2022-08-11T05:13:01;1.83;;;1.60;;
5650;SDS011;40241;52.684;9.758;2022-08-11T05:15:54;1.60;;;1.50;;
5650;SDS011;40241;52.684;9.758;2022-08-11T05:18:50;1.90;;;1.37;;
5650;SDS011;40241;52.684;9.758;2022-08-11T05:21:36;1.60;;;1.50;;
5650;SDS011;40241;52.684;9.758;2022-08-11T05:24:28;1.20;;;1.20;;
5650;SDS011;40241;52.684;9.758;2022-08-11T05:27:18;1.47;;;1.37;;
5650;SDS011;40241;52.684;9.758;2022-08-11T05:30:04;1.50;;;1.40;;
5650;SDS011;40241;52.684;9.758;2022-08-11T05:33:06;1.50;;;1.40;;
5650;SDS011;40241;52.684;9.758;2022-08-11T05:39:06;2.30;;;1.50;;
5650;SDS011;40241;52.684;9.758;2022-08-11T05:41:57;2.63;;;1.57;;
5650;SDS011;40241;52.684;9.758;2022-08-11T05:44:46;1.77;;;1.37;;
5650;SDS011;40241;52.684;9.758;2022-08-11T05:47:33;1.70;;;1.60;;
5650;SDS011;40241;52.684;9.758;2022-08-11T05:50:19;3.63;;;1.37;;
5650;SDS011;40241;52.684;9.758;2022-08-11T05:53:07;1.17;;;1.07;;
5650;SDS011;40241;52.684;9.758;2022-08-11T05:55:53;1.30;;;1.30;;
5650;SDS011;40241;52.684;9.758;2022-08-11T05:58:41;1.53;;;1.43;;
5650;SDS011;40241;52.684;9.758;2022-08-11T06:01:41;1.33;;;1.23;;
5650;SDS011;40241;52.684;9.758;2022-08-11T06:04:04;1.50;;;1.40;;
5650;SDS011;40241;52.684;9.758;2022-08-11T06:06:56;1.37;;;1.33;;
5650;SDS011;40241;52.684;9.758;2022-08-11T06:09:27;1.40;;;1.40;;
5650;SDS011;40241;52.684;9.758;2022-08-11T06:11:58;1.77;;;1.40;;
5650;SDS011;40241;52.684;9.758;2022-08-11T06:14:26;2.87;;;1.30;;
5650;SDS011;40241;52.684;9.758;2022-08-11T06:16:54;1.10;;;1.10;;
5650;SDS011;40241;52.684;9.758;2022-08-11T06:19:28;1.63;;;1.17;;
5650;SDS011;40241;52.684;9.758;2022-08-11T06:21:56;2.60;;;1.33;;
5650;SDS011;40241;52.684;9.758;2022-08-11T06:24:22;8.03;;;1.47;;
5650;SDS011;40241;52.684;9.758;2022-08-11T06:26:49;1.60;;;1.50;;
5650;SDS011;40241;52.684;9.758;2022-08-11T06:29:16;1.30;;;1.20;;
5650;SDS011;40241;52.684;9.758;2022-08-11T06:31:49;5.80;;;1.50;;
5650;SDS011;40241;52.684;9.758;2022-08-11T06:34:29;2.40;;;1.67;;
5650;SDS011;40241;52.684;9.758;2022-08-11T06:37:04;1.17;;;1.17;;
5650;SDS011;40241;52.684;9.758;2022-08-11T06:45:07;1.53;;;1.43;;
5650;SDS011;40241;52.684;9.758;2022-08-11T06:47:43;1.40;;;1.30;;
5650;SDS011;40241;52.684;9.758;2022-08-11T06:50:14;1.70;;;1.60;;
5650;SDS011;40241;52.684;9.758;2022-08-11T06:53:02;2.30;;;1.60;;
5650;SDS011;40241;52.684;9.758;2022-08-11T06:55:29;1.60;;;1.50;;
5650;SDS011;40241;52.684;9.758;2022-08-11T06:58:16;1.50;;;1.40;;
5650;SDS011;40241;52.684;9.758;2022-08-11T07:01:04;1.40;;;1.30;;
5650;SDS011;40241;52.684;9.758;2022-08-11T07:03:36;2.00;;;1.80;;
5650;SDS011;40241;52.684;9.758;2022-08-11T07:14:49;2.27;;;1.53;;
5650;SDS011;40241;52.684;9.758;2022-08-11T07:17:37;4.30;;;1.70;;
5650;SDS011;40241;52.684;9.758;2022-08-11T07:20:08;1.87;;;1.77;;
5650;SDS011;40241;52.684;9.758;2022-08-11T07:22:57;3.40;;;1.90;;
5650;SDS011;40241;52.684;9.758;2022-08-11T07:25:45;1.60;;;1.50;;
5650;SDS011;40241;52.684;9.758;2022-08-11T07:28:34;20.67;;;2.30;;
5650;SDS011;40241;52.684;9.758;2022-08-11T07:36:39;1.27;;;1.17;;
5650;SDS011;40241;52.684;9.758;2022-08-11T07:39:12;2.33;;;1.30;;
5650;SDS011;40241;52.684;9.758;2022-08-11T07:41:43;1.60;;;1.50;;
5650;SDS011;40241;52.684;9.758;2022-08-11T07:44:11;1.63;;;1.53;;
5650;SDS011;40241;52.684;9.758;2022-08-11T07:46:40;3.07;;;1.80;;
5650;SDS011;40241;52.684;9.758;2022-08-11T07:49:25;1.30;;;1.20;;
5650;SDS011;40241;52.684;9.758;2022-08-11T07:52:09;1.70;;;1.60;;
5650;SDS011;40241;52.684;9.758;2022-08-11T07:54:54;2.33;;;2.13;;
5650;SDS011;40241;52.684;9.758;2022-08-11T07:57:24;1.47;;;1.37;;
5650;SDS011;40241;52.684;9.758;2022-08-11T08:00:09;1.70;;;1.57;;
5650;SDS011;40241;52.684;9.758;2022-08-11T08:02:53;1.47;;;1.30;;
5650;SDS011;40241;52.684;9.758;2022-08-11T08:05:38;1.40;;;1.30;;
5650;SDS011;40241;52.684;9.758;2022-08-11T08:08:22;1.80;;;1.63;;
5650;SDS011;40241;52.684;9.758;2022-08-11T08:11:08;1.40;;;1.30;;
5650;SDS011;40241;52.684;9.758;2022-08-11T08:13:52;1.60;;;1.50;;
5650;SDS011;40241;52.684;9.758;2022-08-11T08:16:37;1.60;;;1.50;;
5650;SDS011;40241;52.684;9.758;2022-08-11T08:19:22;1.30;;;1.20;;
5650;SDS011;40241;52.684;9.758;2022-08-11T08:21:48;4.30;;;1.40;;
5650;SDS011;40241;52.684;9.758;2022-08-11T08:24:14;1.50;;;1.40;;
5650;SDS011;40241;52.684;9.758;2022-08-11T08:26:44;1.43;;;1.33;;
5650;SDS011;40241;52.684;9.758;2022-08-11T08:29:28;1.70;;;1.60;;
5650;SDS011;40241;52.684;9.758;2022-08-11T08:32:16;1.50;;;1.40;;
5650;SDS011;40241;52.684;9.758;2022-08-11T08:34:43;1.80;;;1.70;;
5650;SDS011;40241;52.684;9.758;2022-08-11T08:37:09;1.73;;;1.53;;
5650;SDS011;40241;52.684;9.758;2022-08-11T08:39:35;1.83;;;1.57;;
5650;SDS011;40241;52.684;9.758;2022-08-11T08:42:03;1.93;;;1.83;;
5650;SDS011;40241;52.684;9.758;2022-08-11T08:44:34;1.63;;;1.43;;
5650;SDS011;40241;52.684;9.758;2022-08-11T08:47:03;1.70;;;1.60;;
5650;SDS011;40241;52.684;9.758;2022-08-11T08:49:31;1.70;;;1.60;;
5650;SDS011;40241;52.684;9.758;2022-08-11T08:52:03;1.40;;;1.30;;
5650;SDS011;40241;52.684;9.758;2022-08-11T08:54:33;1.83;;;1.70;;
5650;SDS011;40241;52.684;9.758;2022-08-11T08:57:01;1.50;;;1.50;;
5650;SDS011;40241;52.684;9.758;2022-08-11T08:59:29;1.60;;;1.50;;
5650;SDS011;40241;52.684;9.758;2022-08-11T09:01:58;1.53;;;1.43;;
5650;SDS011;40241;52.684;9.758;2022-08-11T09:04:25;1.63;;;1.53;;
5650;SDS011;40241;52.684;9.758;2022-08-11T09:06:53;3.27;;;1.60;;
5650;SDS011;40241;52.684;9.758;2022-08-11T09:09:20;1.30;;;1.20;;
5650;SDS011;40241;52.684;9.758;2022-08-11T09:11:47;2.67;;;1.60;;
5650;SDS011;40241;52.684;9.758;2022-08-11T09:14:20;1.67;;;1.43;;
5650;SDS011;40241;52.684;9.758;2022-08-11T09:16:49;3.43;;;1.50;;
5650;SDS011;40241;52.684;9.758;2022-08-11T09:19:16;1.63;;;1.53;;
5650;SDS011;40241;52.684;9.758;2022-08-11T09:21:47;1.20;;;1.10;;
5650;SDS011;40241;52.684;9.758;2022-08-11T09:24:35;1.23;;;1.13;;
5650;SDS011;40241;52.684;9.758;2022-08-11T09:27:20;1.10;;;1.10;;
5650;SDS011;40241;52.684;9.758;2022-08-11T09:29:47;1.90;;;1.33;;
5650;SDS011;40241;52.684;9.758;2022-08-11T09:32:12;1.40;;;1.00;;
5650;SDS011;40241;52.684;9.758;2022-08-11T09:34:39;1.50;;;1.40;;
5650;SDS011;40241;52.684;9.758;2022-08-11T09:37:04;1.03;;;0.93;;
5650;SDS011;40241;52.684;9.758;2022-08-11T09:39:51;1.10;;;1.00;;
5650;SDS011;40241;52.684;9.758;2022-08-11T09:42:37;1.60;;;1.10;;
5650;SDS011;40241;52.684;9.758;2022-08-11T09:45:22;1.20;;;1.10;;
5650;SDS011;40241;52.684;9.758;2022-08-11T09:47:47;1.00;;;0.80;;
5650;SDS011;40241;52.684;9.758;2022-08-11T09:50:14;1.00;;;0.80;;
5650;SDS011;40241;52.684;9.758;2022-08-11T09:52:40;0.83;;;0.83;;
5650;SDS011;40241;52.684;9.758;2022-08-11T09:55:09;1.10;;;0.90;;
5650;SDS011;40241;52.684;9.758;2022-08-11T09:57:43;2.60;;;0.90;;
5650;SDS011;40241;52.684;9.758;2022-08-11T10:00:29;1.73;;;0.90;;
5650;SDS011;40241;52.684;9.758;2022-08-11T10:02:56;1.10;;;0.80;;
5650;SDS011;40241;52.684;9.758;2022-08-11T10:05:23;0.83;;;0.80;;
5650;SDS011;40241;52.684;9.758;2022-08-11T10:08:11;1.20;;;1.10;;
5650;SDS011;40241;52.684;9.758;2022-08-11T10:10:38;1.10;;;1.10;;
5650;SDS011;40241;52.684;9.758;2022-08-11T10:13:09;0.90;;;0.90;;
5650;SDS011;40241;52.684;9.758;2022-08-11T10:15:38;1.00;;;0.90;;
5650;SDS011;40241;52.684;9.758;2022-08-11T10:18:10;0.80;;;0.80;;
5650;SDS011;40241;52.684;9.758;2022-08-11T10:21:01;1.43;;;1.10;;
5650;SDS011;40241;52.684;9.758;2022-08-11T10:23:31;1.13;;;0.97;;
5650;SDS011;40241;52.684;9.758;2022-08-11T10:26:17;2.27;;;0.90;;
5650;SDS011;40241;52.684;9.758;2022-08-11T10:29:04;1.00;;;0.90;;
5650;SDS011;40241;52.684;9.758;2022-08-11T10:31:53;0.93;;;0.83;;
5650;SDS011;40241;52.684;9.758;2022-08-11T10:34:39;1.67;;;0.93;;
5650;SDS011;40241;52.684;9.758;2022-08-11T10:37:06;1.27;;;0.80;;
5650;SDS011;40241;52.684;9.758;2022-08-11T10:39:32;3.13;;;1.03;;
5650;SDS011;40241;52.684;9.758;2022-08-11T10:41:59;2.23;;;0.83;;
5650;SDS011;40241;52.684;9.758;2022-08-11T10:44:45;1.83;;;1.07;;
5650;SDS011;40241;52.684;9.758;2022-08-11T10:47:14;0.90;;;0.90;;
5650;SDS011;40241;52.684;9.758;2022-08-11T10:50:03;1.00;;;1.00;;
5650;SDS011;40241;52.684;9.758;2022-08-11T10:52:48;1.40;;;1.30;;
5650;SDS011;40241;52.684;9.758;2022-08-11T10:55:34;1.10;;;1.00;;
5650;SDS011;40241;52.684;9.758;2022-08-11T10:58:20;1.23;;;1.13;;
5650;SDS011;40241;52.684;9.758;2022-08-11T11:01:05;2.13;;;1.90;;
5650;SDS011;40241;52.684;9.758;2022-08-11T11:03:31;1.10;;;1.10;;
5650;SDS011;40241;52.684;9.758;2022-08-11T11:06:04;14.03;;;1.37;;
5650;SDS011;40241;52.684;9.758;2022-08-11T11:09:07;2.00;;;1.20;;
5650;SDS011;40241;52.684;9.758;2022-08-11T11:11:41;1.10;;;1.00;;
5650;SDS011;40241;52.684;9.758;2022-08-11T11:14:29;2.40;;;0.87;;
5650;SDS011;40241;52.684;9.758;2022-08-11T11:17:15;1.43;;;1.07;;
5650;SDS011;40241;52.684;9.758;2022-08-11T11:20:11;1.00;;;0.90;;
5650;SDS011;40241;52.684;9.758;2022-08-11T11:22:40;1.53;;;1.10;;
5650;SDS011;40241;52.684;9.758;2022-08-11T11:25:47;1.20;;;1.10;;
5650;SDS011;40241;52.684;9.758;2022-08-11T11:31:05;0.70;;;0.70;;
5650;SDS011;40241;52.684;9.758;2022-08-11T11:33:39;1.00;;;0.90;;
5650;SDS011;40241;52.684;9.758;2022-08-11T11:39:19;1.00;;;0.90;;
5650;SDS011;40241;52.684;9.758;2022-08-11T11:41:46;1.90;;;0.93;;
5650;SDS011;40241;52.684;9.758;2022-08-11T11:44:13;1.90;;;1.00;;
5650;SDS011;40241;52.684;9.758;2022-08-11T11:46:39;1.07;;;0.80;;
5650;SDS011;40241;52.684;9.758;2022-08-11T11:49:06;1.10;;;1.00;;
5650;SDS011;40241;52.684;9.758;2022-08-11T11:51:33;0.83;;;0.83;;
5650;SDS011;40241;52.684;9.758;2022-08-11T11:54:01;2.80;;;0.90;;
5650;SDS011;40241;52.684;9.758;2022-08-11T11:56:29;1.43;;;1.00;;
5650;SDS011;40241;52.684;9.758;2022-08-11T11:58:55;0.87;;;0.87;;
5650;SDS011;40241;52.684;9.758;2022-08-11T12:01:39;1.37;;;0.67;;
5650;SDS011;40241;52.684;9.758;2022-08-11T12:04:08;2.00;;;0.83;;
5650;SDS011;40241;52.684;9.758;2022-08-11T12:06:35;0.97;;;0.90;;
5650;SDS011;40241;52.684;9.758;2022-08-11T12:09:02;1.20;;;1.10;;
5650;SDS011;40241;52.684;9.758;2022-08-11T12:11:29;1.37;;;0.80;;
5650;SDS011;40241;52.684;9.758;2022-08-11T12:14:15;0.73;;;0.73;;
5650;SDS011;40241;52.684;9.758;2022-08-11T12:16:43;0.80;;;0.70;;
5650;SDS011;40241;52.684;9.758;2022-08-11T12:19:10;1.43;;;0.80;;
5650;SDS011;40241;52.684;9.758;2022-08-11T12:21:38;1.13;;;0.60;;
5650;SDS011;40241;52.684;9.758;2022-08-11T12:24:23;0.80;;;0.70;;
5650;SDS011;40241;52.684;9.758;2022-08-11T12:27:07;0.87;;;0.73;;
5650;SDS011;40241;52.684;9.758;2022-08-11T12:29:48;5.40;;;0.87;;
5650;SDS011;40241;52.684;9.758;2022-08-11T12:32:16;1.07;;;0.70;;
5650;SDS011;40241;52.684;9.758;2022-08-11T12:34:43;2.47;;;0.60;;
5650;SDS011;40241;52.684;9.758;2022-08-11T12:37:09;0.90;;;0.83;;
5650;SDS011;40241;52.684;9.758;2022-08-11T12:39:37;1.00;;;0.80;;
5650;SDS011;40241;52.684;9.758;2022-08-11T12:42:25;0.70;;;0.70;;
5650;SDS011;40241;52.684;9.758;2022-08-11T12:45:12;1.93;;;0.80;;
5650;SDS011;40241;52.684;9.758;2022-08-11T12:48:12;1.30;;;0.90;;
5650;SDS011;40241;52.684;9.758;2022-08-11T12:51:05;0.70;;;0.70;;
5650;SDS011;40241;52.684;9.758;2022-08-11T12:54:05;0.80;;;0.80;;
5650;SDS011;40241;52.684;9.758;2022-08-11T12:56:38;1.97;;;0.80;;
5650;SDS011;40241;52.684;9.758;2022-08-11T12:59:25;1.03;;;0.87;;
5650;SDS011;40241;52.684;9.758;2022-08-11T13:02:10;1.53;;;0.90;;
5650;SDS011;40241;52.684;9.758;2022-08-11T13:04:59;1.13;;;0.60;;
5650;SDS011;40241;52.684;9.758;2022-08-11T13:07:27;1.43;;;1.00;;
5650;SDS011;40241;52.684;9.758;2022-08-11T13:09:54;0.90;;;0.90;;
5650;SDS011;40241;52.684;9.758;2022-08-11T13:12:23;1.00;;;0.70;;
5650;SDS011;40241;52.684;9.758;2022-08-11T13:15:13;0.80;;;0.70;;
5650;SDS011;40241;52.684;9.758;2022-08-11T13:17:44;0.80;;;0.80;;
5650;SDS011;40241;52.684;9.758;2022-08-11T13:20:13;1.03;;;0.90;;
5650;SDS011;40241;52.684;9.758;2022-08-11T13:22:44;1.23;;;0.90;;
5650;SDS011;40241;52.684;9.758;2022-08-11T13:25:14;0.83;;;0.80;;
5650;SDS011;40241;52.684;9.758;2022-08-11T13:27:42;0.70;;;0.70;;
5650;SDS011;40241;52.684;9.758;2022-08-11T13:30:09;1.07;;;0.80;;
5650;SDS011;40241;52.684;9.758;2022-08-11T13:32:54;1.27;;;0.80;;
5650;SDS011;40241;52.684;9.758;2022-08-11T13:35:20;0.80;;;0.80;;
5650;SDS011;40241;52.684;9.758;2022-08-11T13:37:46;0.93;;;0.93;;
5650;SDS011;40241;52.684;9.758;2022-08-11T13:40:14;0.80;;;0.80;;
5650;SDS011;40241;52.684;9.758;2022-08-11T13:42:42;0.90;;;0.90;;
5650;SDS011;40241;52.684;9.758;2022-08-11T13:45:08;1.57;;;0.80;;
5650;SDS011;40241;52.684;9.758;2022-08-11T13:47:35;0.93;;;0.77;;
5650;SDS011;40241;52.684;9.758;2022-08-11T13:50:02;0.80;;;0.80;;
5650;SDS011;40241;52.684;9.758;2022-08-11T13:52:28;6.73;;;0.83;;
5650;SDS011;40241;52.684;9.758;2022-08-11T13:54:54;1.00;;;1.00;;
5650;SDS011;40241;52.684;9.758;2022-08-11T13:57:20;1.07;;;1.00;;
5650;SDS011;40241;52.684;9.758;2022-08-11T13:59:51;1.10;;;1.00;;
5650;SDS011;40241;52.684;9.758;2022-08-11T14:02:34;1.33;;;0.90;;
5650;SDS011;40241;52.684;9.758;2022-08-11T14:05:05;2.30;;;1.07;;
5650;SDS011;40241;52.684;9.758;2022-08-11T14:07:38;0.70;;;0.70;;
5650;SDS011;40241;52.684;9.758;2022-08-11T14:10:11;1.00;;;0.90;;
5650;SDS011;40241;52.684;9.758;2022-08-11T14:12:39;0.70;;;0.60;;
5650;SDS011;40241;52.684;9.758;2022-08-11T14:15:27;1.10;;;0.80;;
5650;SDS011;40241;52.684;9.758;2022-08-11T14:17:57;0.90;;;0.90;;
5650;SDS011;40241;52.684;9.758;2022-08-11T14:20:27;1.30;;;1.20;;
5650;SDS011;40241;52.684;9.758;2022-08-11T14:23:14;1.10;;;0.90;;
5650;SDS011;40241;52.684;9.758;2022-08-11T14:25:40;1.10;;;0.90;;
5650;SDS011;40241;52.684;9.758;2022-08-11T14:28:27;1.10;;;0.93;;
5650;SDS011;40241;52.684;9.758;2022-08-11T14:30:53;1.17;;;0.70;;
5650;SDS011;40241;52.684;9.758;2022-08-11T14:33:19;0.80;;;0.77;;
5650;SDS011;40241;52.684;9.758;2022-08-11T14:35:44;0.70;;;0.67;;
5650;SDS011;40241;52.684;9.758;2022-08-11T14:38:10;0.97;;;0.83;;
5650;SDS011;40241;52.684;9.758;2022-08-11T14:40:36;1.23;;;1.13;;
5650;SDS011;40241;52.684;9.758;2022-08-11T14:43:20;0.70;;;0.70;;
5650;SDS011;40241;52.684;9.758;2022-08-11T14:46:04;1.87;;;1.00;;
5650;SDS011;40241;52.684;9.758;2022-08-11T14:48:48;4.03;;;1.00;;
5650;SDS011;40241;52.684;9.758;2022-08-11T14:51:14;1.00;;;0.90;;
5650;SDS011;40241;52.684;9.758;2022-08-11T14:53:39;0.90;;;0.77;;
5650;SDS011;40241;52.684;9.758;2022-08-11T14:56:05;1.27;;;1.03;;
5650;SDS011;40241;52.684;9.758;2022-08-11T14:58:49;1.33;;;1.23;;
5650;SDS011;40241;52.684;9.758;2022-08-11T15:01:15;0.80;;;0.77;;
5650;SDS011;40241;52.684;9.758;2022-08-11T15:03:59;3.87;;;1.13;;
5650;SDS011;40241;52.684;9.758;2022-08-11T15:06:24;0.70;;;0.60;;
5650;SDS011;40241;52.684;9.758;2022-08-11T15:08:52;0.90;;;0.73;;
5650;SDS011;40241;52.684;9.758;2022-08-11T15:11:19;0.90;;;0.90;;
5650;SDS011;40241;52.684;9.758;2022-08-11T15:14:05;1.60;;;0.83;;
5650;SDS011;40241;52.684;9.758;2022-08-11T15:16:33;1.27;;;0.80;;
5650;SDS011;40241;52.684;9.758;2022-08-11T15:19:19;2.07;;;0.93;;
5650;SDS011;40241;52.684;9.758;2022-08-11T15:21:45;0.67;;;0.63;;
5650;SDS011;40241;52.684;9.758;2022-08-11T15:24:30;1.00;;;0.80;;
5650;SDS011;40241;52.684;9.758;2022-08-11T15:26:57;0.90;;;0.80;;
5650;SDS011;40241;52.684;9.758;2022-08-11T15:29:44;1.00;;;1.00;;
5650;SDS011;40241;52.684;9.758;2022-08-11T15:32:31;0.80;;;0.80;;
5650;SDS011;40241;52.684;9.758;2022-08-11T15:35:17;0.83;;;0.83;;
5650;SDS011;40241;52.684;9.758;2022-08-11T15:38:01;0.73;;;0.73;;
5650;SDS011;40241;52.684;9.758;2022-08-11T15:40:34;1.33;;;1.00;;
5650;SDS011;40241;52.684;9.758;2022-08-11T15:46:19;1.20;;;1.00;;
5650;SDS011;40241;52.684;9.758;2022-08-11T15:48:57;0.93;;;0.77;;
5650;SDS011;40241;52.684;9.758;2022-08-11T15:54:10;1.87;;;0.80;;
5650;SDS011;40241;52.684;9.758;2022-08-11T15:56:42;1.10;;;1.00;;
5650;SDS011;40241;52.684;9.758;2022-08-11T15:59:11;1.50;;;1.10;;
5650;SDS011;40241;52.684;9.758;2022-08-11T16:01:57;1.17;;;0.83;;
5650;SDS011;40241;52.684;9.758;2022-08-11T16:04:44;0.93;;;0.83;;
5650;SDS011;40241;52.684;9.758;2022-08-11T16:07:14;0.83;;;0.83;;
5650;SDS011;40241;52.684;9.758;2022-08-11T16:09:44;0.90;;;0.80;;
5650;SDS011;40241;52.684;9.758;2022-08-11T16:12:36;1.30;;;1.20;;
5650;SDS011;40241;52.684;9.758;2022-08-11T16:15:06;1.10;;;1.00;;
5650;SDS011;40241;52.684;9.758;2022-08-11T16:17:55;0.90;;;0.90;;
5650;SDS011;40241;52.684;9.758;2022-08-11T16:20:25;2.37;;;1.10;;
5650;SDS011;40241;52.684;9.758;2022-08-11T16:22:55;2.90;;;0.90;;
5650;SDS011;40241;52.684;9.758;2022-08-11T16:25:23;0.93;;;0.93;;
5650;SDS011;40241;52.684;9.758;2022-08-11T16:27:52;2.93;;;1.00;;
5650;SDS011;40241;52.684;9.758;2022-08-11T16:30:21;5.73;;;1.10;;
5650;SDS011;40241;52.684;9.758;2022-08-11T16:32:48;1.30;;;1.00;;
5650;SDS011;40241;52.684;9.758;2022-08-11T16:35:17;1.20;;;1.10;;
5650;SDS011;40241;52.684;9.758;2022-08-11T16:38:04;1.20;;;0.80;;
5650;SDS011;40241;52.684;9.758;2022-08-11T16:40:51;1.10;;;1.10;;
5650;SDS011;40241;52.684;9.758;2022-08-11T16:43:20;0.90;;;0.90;;
5650;SDS011;40241;52.684;9.758;2022-08-11T16:46:06;1.40;;;1.30;;
5650;SDS011;40241;52.684;9.758;2022-08-11T16:48:51;0.80;;;0.80;;
5650;SDS011;40241;52.684;9.758;2022-08-11T16:51:19;1.23;;;0.70;;
5650;SDS011;40241;52.684;9.758;2022-08-11T16:53:45;0.80;;;0.70;;
5650;SDS011;40241;52.684;9.758;2022-08-11T16:56:14;0.80;;;0.80;;
5650;SDS011;40241;52.684;9.758;2022-08-11T17:07:34;0.90;;;0.73;;
5650;SDS011;40241;52.684;9.758;2022-08-11T17:10:34;1.33;;;0.90;;
5650;SDS011;40241;52.684;9.758;2022-08-11T17:13:25;0.80;;;0.80;;
5650;SDS011;40241;52.684;9.758;2022-08-11T17:15:57;0.83;;;0.83;;
5650;SDS011;40241;52.684;9.758;2022-08-11T17:18:39;2.40;;;0.90;;
5650;SDS011;40241;52.684;9.758;2022-08-11T17:23:54;1.43;;;1.10;;
5650;SDS011;40241;52.684;9.758;2022-08-11T17:26:27;0.90;;;0.90;;
5650;SDS011;40241;52.684;9.758;2022-08-11T17:29:16;1.40;;;0.90;;
5650;SDS011;40241;52.684;9.758;2022-08-11T17:31:45;1.17;;;0.90;;
5650;SDS011;40241;52.684;9.758;2022-08-11T17:34:30;1.00;;;0.80;;
5650;SDS011;40241;52.684;9.758;2022-08-11T17:37:16;4.87;;;1.10;;
5650;SDS011;40241;52.684;9.758;2022-08-11T17:39:43;1.83;;;1.30;;
5650;SDS011;40241;52.684;9.758;2022-08-11T17:42:10;1.13;;;0.70;;
5650;SDS011;40241;52.684;9.758;2022-08-11T17:45:13;0.93;;;0.83;;
5650;SDS011;40241;52.684;9.758;2022-08-11T17:47:58;0.80;;;0.73;;
5650;SDS011;40241;52.684;9.758;2022-08-11T17:50:43;1.63;;;1.03;;
5650;SDS011;40241;52.684;9.758;2022-08-11T17:53:10;1.03;;;0.93;;
5650;SDS011;40241;52.684;9.758;2022-08-11T17:55:56;0.80;;;0.80;;
5650;SDS011;40241;52.684;9.758;2022-08-11T17:58:42;2.50;;;1.10;;
5650;SDS011;40241;52.684;9.758;2022-08-11T18:01:28;1.00;;;0.73;;
5650;SDS011;40241;52.684;9.758;2022-08-11T18:03:59;0.97;;;0.97;;
5650;SDS011;40241;52.684;9.758;2022-08-11T18:06:29;0.90;;;0.90;;
5650;SDS011;40241;52.684;9.758;2022-08-11T18:08:57;1.17;;;1.00;;
5650;SDS011;40241;52.684;9.758;2022-08-11T18:11:43;1.00;;;0.90;;
5650;SDS011;40241;52.684;9.758;2022-08-11T18:14:29;0.80;;;0.80;;
5650;SDS011;40241;52.684;9.758;2022-08-11T18:17:15;0.93;;;0.83;;
5650;SDS011;40241;52.684;9.758;2022-08-11T18:20:00;1.33;;;0.90;;
5650;SDS011;40241;52.684;9.758;2022-08-11T18:22:44;2.23;;;1.20;;
5650;SDS011;40241;52.684;9.758;2022-08-11T18:25:30;1.20;;;0.97;;
5650;SDS011;40241;52.684;9.758;2022-08-11T18:28:31;1.93;;;1.10;;
5650;SDS011;40241;52.684;9.758;2022-08-11T18:31:25;0.93;;;0.83;;
5650;SDS011;40241;52.684;9.758;2022-08-11T18:34:12;0.77;;;0.77;;
5650;SDS011;40241;52.684;9.758;2022-08-11T18:39:49;6.30;;;1.10;;
5650;SDS011;40241;52.684;9.758;2022-08-11T18:42:40;0.70;;;0.70;;
5650;SDS011;40241;52.684;9.758;2022-08-11T18:45:26;0.87;;;0.70;;
5650;SDS011;40241;52.684;9.758;2022-08-11T18:48:11;1.03;;;0.93;;
5650;SDS011;40241;52.684;9.758;2022-08-11T18:50:59;0.90;;;0.90;;
5650;SDS011;40241;52.684;9.758;2022-08-11T18:53:48;1.10;;;1.00;;
5650;SDS011;40241;52.684;9.758;2022-08-11T18:56:35;1.73;;;0.90;;
5650;SDS011;40241;52.684;9.758;2022-08-11T18:59:20;7.80;;;1.43;;
5650;SDS011;40241;52.684;9.758;2022-08-11T19:02:08;2.03;;;1.00;;
5650;SDS011;40241;52.684;9.758;2022-08-11T19:04:54;2.30;;;1.20;;
5650;SDS011;40241;52.684;9.758;2022-08-11T19:07:40;1.37;;;1.13;;
5650;SDS011;40241;52.684;9.758;2022-08-11T19:10:28;3.00;;;1.30;;
5650;SDS011;40241;52.684;9.758;2022-08-11T19:13:13;1.73;;;1.10;;
5650;SDS011;40241;52.684;9.758;2022-08-11T19:15:58;1.20;;;1.10;;
5650;SDS011;40241;52.684;9.758;2022-08-11T19:18:44;1.13;;;1.13;;
5650;SDS011;40241;52.684;9.758;2022-08-11T19:21:29;1.50;;;1.23;;
5650;SDS011;40241;52.684;9.758;2022-08-11T19:24:14;1.20;;;1.10;;
5650;SDS011;40241;52.684;9.758;2022-08-11T19:27:00;2.90;;;1.40;;
5650;SDS011;40241;52.684;9.758;2022-08-11T19:29:45;1.30;;;1.20;;
5650;SDS011;40241;52.684;9.758;2022-08-11T19:32:29;1.30;;;1.20;;
5650;SDS011;40241;52.684;9.758;2022-08-11T19:35:15;2.77;;;1.00;;
5650;SDS011;40241;52.684;9.758;2022-08-11T19:37:59;1.40;;;1.30;;
5650;SDS011;40241;52.684;9.758;2022-08-11T19:40:45;0.90;;;0.87;;
5650;SDS011;40241;52.684;9.758;2022-08-11T19:43:30;1.30;;;1.20;;
5650;SDS011;40241;52.684;9.758;2022-08-11T19:46:16;1.27;;;1.17;;
5650;SDS011;40241;52.684;9.758;2022-08-11T19:49:03;1.47;;;1.37;;